Time;durP1;ratioP1;P1;durP2;ratioP2;P2;SDS_P1;SDS_P2;PMS_P1;PMS_P2;Temp;Humidity;BMP_temperature;BMP_pressure;BME280_temperature;BME280_humidity;BME280_pressure;Samples;Min_cycle;Max_cycle;Signal;HPM_P1;HPM_P2
2022/05/19 00:01:42;;;;;;;3.40;3.10;;;;;;;;;;5055184;28;24475;-46
2022/05/19 00:04:07;;;;;;;3.00;2.80;;;;;;;;;;5053823;28;24427;-45
2022/05/19 00:06:32;;;;;;;3.30;3.10;;;;;;;;;;5065573;28;24964;-44
2022/05/19 00:08:57;;;;;;;3.42;3.17;;;;;;;;;;5055624;28;24483;-44
2022/05/19 00:11:25;;;;;;;3.40;3.20;;;;;;;;;;5055992;28;24426;-46
2022/05/19 00:13:51;;;;;;;3.60;3.30;;;;;;;;;;5067825;28;24420;-45
2022/05/19 00:16:16;;;;;;;4.07;3.20;;;;;;;;;;5059631;28;24427;-45
2022/05/19 00:18:41;;;;;;;3.70;3.37;;;;;;;;;;5062259;28;24418;-45
2022/05/19 00:21:06;;;;;;;3.37;3.07;;;;;;;;;;5074840;28;24546;-45
2022/05/19 00:23:31;;;;;;;3.53;3.23;;;;;;;;;;5059077;28;24422;-45
2022/05/19 00:25:56;;;;;;;3.50;3.20;;;;;;;;;;5064055;28;24445;-45
2022/05/19 00:28:22;;;;;;;3.70;3.40;;;;;;;;;;5064875;28;24481;-45
2022/05/19 00:30:47;;;;;;;3.63;3.33;;;;;;;;;;5062447;28;24443;-45
2022/05/19 00:33:13;;;;;;;3.42;3.20;;;;;;;;;;5065137;28;24483;-45
2022/05/19 00:35:38;;;;;;;3.63;3.43;;;;;;;;;;5057620;28;24419;-45
2022/05/19 00:38:04;;;;;;;3.42;3.22;;;;;;;;;;5065827;28;24423;-45
2022/05/19 00:40:29;;;;;;;3.10;2.90;;;;;;;;;;5057980;28;24420;-45
2022/05/19 00:42:54;;;;;;;3.80;3.50;;;;;;;;;;5057187;28;24812;-45
2022/05/19 00:45:25;;;;;;;3.93;3.37;;;;;;;;;;5058421;28;24422;-45
2022/05/19 00:47:58;;;;;;;3.50;3.00;;;;;;;;;;5054652;28;24415;-45
2022/05/19 00:50:29;;;;;;;3.90;3.60;;;;;;;;;;5049608;28;24426;-45
2022/05/19 00:52:58;;;;;;;3.40;3.10;;;;;;;;;;5046501;28;24415;-45
2022/05/19 00:55:33;;;;;;;3.50;3.20;;;;;;;;;;5063320;28;24430;-45
2022/05/19 00:58:01;;;;;;;3.17;2.78;;;;;;;;;;5056051;28;24434;-45
2022/05/19 01:00:26;;;;;;;3.10;2.90;;;;;;;;;;5066962;28;24567;-45
2022/05/19 01:02:53;;;;;;;3.10;2.90;;;;;;;;;;5056319;28;24527;-44
2022/05/19 01:05:22;;;;;;;3.20;3.00;;;;;;;;;;5050129;28;24778;-47
2022/05/19 01:07:50;;;;;;;3.10;2.90;;;;;;;;;;5065297;28;24426;-45
2022/05/19 01:10:15;;;;;;;3.00;2.80;;;;;;;;;;5056240;28;24427;-45
2022/05/19 01:12:44;;;;;;;4.53;3.50;;;;;;;;;;5069857;28;25059;-46
2022/05/19 01:15:09;;;;;;;3.35;3.15;;;;;;;;;;5076819;28;24476;-46
2022/05/19 01:17:35;;;;;;;3.10;2.90;;;;;;;;;;5069791;28;24474;-44
2022/05/19 01:20:04;;;;;;;3.47;3.17;;;;;;;;;;5062335;28;24755;-45
2022/05/19 01:22:37;;;;;;;3.40;3.10;;;;;;;;;;5069736;28;24957;-45
2022/05/19 01:25:03;;;;;;;3.50;3.20;;;;;;;;;;5082592;28;24425;-45
2022/05/19 01:27:29;;;;;;;3.20;3.00;;;;;;;;;;5056995;28;24779;-45
2022/05/19 01:29:54;;;;;;;3.60;3.30;;;;;;;;;;5054273;28;24447;-45
2022/05/19 01:32:27;;;;;;;3.33;3.13;;;;;;;;;;5069396;28;24479;-44
2022/05/19 01:34:52;;;;;;;3.20;3.00;;;;;;;;;;5072569;28;24473;-45
2022/05/19 01:37:18;;;;;;;3.67;3.37;;;;;;;;;;5053973;28;24457;-45
2022/05/19 01:39:45;;;;;;;3.00;2.80;;;;;;;;;;5066452;28;24419;-45
2022/05/19 01:42:18;;;;;;;4.30;3.10;;;;;;;;;;5060984;28;24419;-45
2022/05/19 01:44:56;;;;;;;4.25;3.17;;;;;;;;;;5059157;28;24484;-45
2022/05/19 01:47:25;;;;;;;3.40;3.10;;;;;;;;;;5048299;28;24782;-45
2022/05/19 01:50:00;;;;;;;3.60;3.30;;;;;;;;;;5050700;28;24874;-45
2022/05/19 01:52:33;;;;;;;4.57;3.20;;;;;;;;;;5063769;28;25011;-45
2022/05/19 01:55:03;;;;;;;3.65;3.35;;;;;;;;;;5067785;28;24981;-45
2022/05/19 01:57:31;;;;;;;3.70;3.20;;;;;;;;;;5071475;28;24557;-45
2022/05/19 02:00:12;;;;;;;3.88;3.30;;;;;;;;;;5065820;28;24459;-45
2022/05/19 02:02:37;;;;;;;3.10;2.90;;;;;;;;;;5057294;28;24416;-45
2022/05/19 02:05:06;;;;;;;3.90;3.60;;;;;;;;;;5053487;28;24486;-45
2022/05/19 02:07:33;;;;;;;3.90;3.30;;;;;;;;;;5064392;28;24808;-45
2022/05/19 02:10:00;;;;;;;3.50;3.20;;;;;;;;;;5063868;28;24476;-45
2022/05/19 02:12:27;;;;;;;3.70;3.40;;;;;;;;;;5057897;28;24420;-45
2022/05/19 02:14:55;;;;;;;3.90;3.50;;;;;;;;;;5051677;28;25188;-45
2022/05/19 02:17:21;;;;;;;3.40;3.10;;;;;;;;;;5063824;28;24503;-44
2022/05/19 02:19:48;;;;;;;3.30;3.10;;;;;;;;;;5057057;28;24435;-45
2022/05/19 02:22:15;;;;;;;3.80;3.40;;;;;;;;;;5065758;28;24504;-45
2022/05/19 02:24:44;;;;;;;3.33;3.10;;;;;;;;;;5065697;28;24961;-45
2022/05/19 02:27:22;;;;;;;4.75;3.30;;;;;;;;;;5059476;28;24438;-45
2022/05/19 02:29:47;;;;;;;3.55;3.20;;;;;;;;;;5059341;28;24421;-45
2022/05/19 02:32:13;;;;;;;4.37;3.57;;;;;;;;;;5064336;28;24506;-46
2022/05/19 02:34:38;;;;;;;3.67;3.38;;;;;;;;;;5054453;28;24529;-44
2022/05/19 02:37:05;;;;;;;3.60;3.30;;;;;;;;;;5065599;28;24466;-45
2022/05/19 02:39:30;;;;;;;3.67;3.38;;;;;;;;;;5063315;28;24570;-45
2022/05/19 02:41:55;;;;;;;3.70;3.40;;;;;;;;;;5080183;28;24894;-44
2022/05/19 02:44:20;;;;;;;3.40;3.10;;;;;;;;;;5055177;28;24414;-45
2022/05/19 02:46:46;;;;;;;3.58;3.28;;;;;;;;;;5065224;28;24434;-46
2022/05/19 02:49:11;;;;;;;3.20;3.00;;;;;;;;;;5054702;28;24937;-45
2022/05/19 02:51:36;;;;;;;3.40;3.20;;;;;;;;;;5060198;28;24411;-45
2022/05/19 02:54:01;;;;;;;3.80;3.50;;;;;;;;;;5062017;28;24450;-45
2022/05/19 02:56:26;;;;;;;3.57;3.27;;;;;;;;;;5057494;28;24434;-45
2022/05/19 02:58:52;;;;;;;4.03;3.63;;;;;;;;;;5056669;28;24415;-45
2022/05/19 03:01:17;;;;;;;3.63;3.42;;;;;;;;;;5057811;28;24408;-45
2022/05/19 03:03:42;;;;;;;3.50;3.30;;;;;;;;;;5062631;28;24439;-45
2022/05/19 03:06:07;;;;;;;3.90;3.60;;;;;;;;;;5056391;28;24569;-45
2022/05/19 03:08:33;;;;;;;3.97;3.67;;;;;;;;;;5056959;28;24522;-45
2022/05/19 03:10:58;;;;;;;3.60;3.40;;;;;;;;;;5060731;28;24449;-45
2022/05/19 03:13:23;;;;;;;6.07;3.70;;;;;;;;;;5072083;28;25036;-45
2022/05/19 03:15:49;;;;;;;3.80;3.50;;;;;;;;;;5057686;28;24526;-45
2022/05/19 03:18:14;;;;;;;4.37;3.97;;;;;;;;;;5063704;28;24510;-45
2022/05/19 03:20:40;;;;;;;3.88;3.50;;;;;;;;;;5060288;28;24509;-45
2022/05/19 03:23:05;;;;;;;4.33;3.50;;;;;;;;;;5067387;28;24474;-46
2022/05/19 03:25:30;;;;;;;4.13;3.72;;;;;;;;;;5049804;28;24472;-46
2022/05/19 03:27:56;;;;;;;3.90;3.60;;;;;;;;;;5062827;28;24500;-45
2022/05/19 03:30:21;;;;;;;4.10;3.70;;;;;;;;;;5071057;28;25040;-45
2022/05/19 03:32:46;;;;;;;3.70;3.40;;;;;;;;;;5086269;28;24999;-45
2022/05/19 03:35:13;;;;;;;3.90;3.50;;;;;;;;;;5075163;28;24419;-45
2022/05/19 03:37:38;;;;;;;4.40;4.10;;;;;;;;;;5047479;28;25159;-46
2022/05/19 03:40:04;;;;;;;3.90;3.40;;;;;;;;;;5047031;28;24396;-45
2022/05/19 03:42:29;;;;;;;4.40;3.65;;;;;;;;;;5066783;28;24545;-45
2022/05/19 03:44:54;;;;;;;4.20;3.90;;;;;;;;;;5074454;28;24433;-45
2022/05/19 03:47:20;;;;;;;3.70;3.40;;;;;;;;;;5066091;28;24427;-46
2022/05/19 03:49:45;;;;;;;4.20;3.80;;;;;;;;;;5077518;28;24501;-45
2022/05/19 03:52:10;;;;;;;4.27;3.87;;;;;;;;;;5073747;28;24895;-45
2022/05/19 03:54:35;;;;;;;4.10;3.80;;;;;;;;;;5059908;28;24547;-45
2022/05/19 03:57:00;;;;;;;4.40;4.00;;;;;;;;;;5064068;28;24421;-45
2022/05/19 03:59:25;;;;;;;4.03;3.63;;;;;;;;;;5066881;28;24415;-45
2022/05/19 04:01:51;;;;;;;4.30;3.90;;;;;;;;;;5066528;28;25090;-45
2022/05/19 04:04:17;;;;;;;4.20;3.80;;;;;;;;;;5065771;28;24567;-48
2022/05/19 04:06:42;;;;;;;3.90;3.60;;;;;;;;;;5063206;28;24952;-45
2022/05/19 04:09:07;;;;;;;4.25;3.88;;;;;;;;;;5063596;28;24492;-45
2022/05/19 04:11:33;;;;;;;4.20;3.72;;;;;;;;;;5058142;28;24980;-45
2022/05/19 04:13:58;;;;;;;3.97;3.67;;;;;;;;;;5073201;28;24437;-46
2022/05/19 04:16:23;;;;;;;4.20;3.80;;;;;;;;;;5069654;28;24468;-45
2022/05/19 04:18:48;;;;;;;3.50;3.20;;;;;;;;;;5066679;28;24561;-46
2022/05/19 04:21:14;;;;;;;4.30;3.30;;;;;;;;;;5055815;28;24442;-46
2022/05/19 04:23:39;;;;;;;3.80;3.50;;;;;;;;;;5059119;28;24498;-45
2022/05/19 04:26:04;;;;;;;4.00;3.70;;;;;;;;;;5057237;28;24488;-45
2022/05/19 04:28:29;;;;;;;4.00;3.70;;;;;;;;;;5050802;28;24450;-46
2022/05/19 04:30:56;;;;;;;4.57;3.20;;;;;;;;;;5047430;28;24455;-45
2022/05/19 04:33:21;;;;;;;4.50;3.60;;;;;;;;;;5062704;28;24488;-46
2022/05/19 04:35:46;;;;;;;3.78;3.47;;;;;;;;;;5057778;28;24419;-46
2022/05/19 04:38:12;;;;;;;3.90;3.60;;;;;;;;;;5047945;28;24427;-46
2022/05/19 04:40:42;;;;;;;3.70;3.40;;;;;;;;;;5052143;28;24423;-46
2022/05/19 04:43:07;;;;;;;3.65;3.30;;;;;;;;;;5058519;28;24516;-46
2022/05/19 04:45:33;;;;;;;4.50;3.53;;;;;;;;;;5045277;28;24518;-46
2022/05/19 04:47:58;;;;;;;3.90;3.60;;;;;;;;;;5049865;28;25034;-46
2022/05/19 04:50:23;;;;;;;4.10;3.60;;;;;;;;;;5050618;28;24531;-45
2022/05/19 04:52:48;;;;;;;3.80;3.50;;;;;;;;;;5057393;28;24423;-45
2022/05/19 04:55:13;;;;;;;3.85;3.53;;;;;;;;;;5046039;28;21619;-46
2022/05/19 04:57:40;;;;;;;3.37;3.10;;;;;;;;;;5071421;28;24518;-46
2022/05/19 05:00:06;;;;;;;3.30;3.08;;;;;;;;;;5064403;28;24430;-45
2022/05/19 05:02:31;;;;;;;3.30;3.10;;;;;;;;;;5046719;28;24407;-46
2022/05/19 05:04:58;;;;;;;3.57;3.20;;;;;;;;;;5046620;28;24468;-46
2022/05/19 05:07:23;;;;;;;4.13;3.63;;;;;;;;;;5055407;28;24674;-46
2022/05/19 05:09:48;;;;;;;3.70;3.40;;;;;;;;;;5056858;28;24445;-45
2022/05/19 05:12:13;;;;;;;3.97;3.28;;;;;;;;;;5075613;28;24521;-46
2022/05/19 05:14:38;;;;;;;3.80;3.03;;;;;;;;;;5057226;28;24427;-45
2022/05/19 05:17:03;;;;;;;2.90;2.70;;;;;;;;;;5052995;28;24418;-46
2022/05/19 05:19:28;;;;;;;3.90;3.20;;;;;;;;;;5067053;28;24427;-45
2022/05/19 05:21:55;;;;;;;3.20;2.90;;;;;;;;;;5064879;28;24557;-45
2022/05/19 05:24:20;;;;;;;4.30;3.10;;;;;;;;;;5060586;28;24430;-45
2022/05/19 05:26:46;;;;;;;3.45;3.15;;;;;;;;;;5052631;28;24419;-46
2022/05/19 05:29:11;;;;;;;3.40;3.10;;;;;;;;;;5048019;28;24443;-45
2022/05/19 05:31:36;;;;;;;3.50;3.20;;;;;;;;;;5049244;28;24415;-46
2022/05/19 05:34:01;;;;;;;3.40;3.10;;;;;;;;;;5074514;28;24422;-45
2022/05/19 05:36:27;;;;;;;3.47;3.13;;;;;;;;;;5089944;28;25088;-45
2022/05/19 05:38:52;;;;;;;3.20;3.00;;;;;;;;;;5089753;28;24883;-46
2022/05/19 05:41:17;;;;;;;3.70;3.40;;;;;;;;;;5088847;28;24430;-46
2022/05/19 05:43:42;;;;;;;3.53;3.22;;;;;;;;;;5085137;28;24590;-45
2022/05/19 05:46:09;;;;;;;4.90;3.80;;;;;;;;;;5089404;28;24401;-46
2022/05/19 05:48:36;;;;;;;3.70;3.40;;;;;;;;;;5089324;28;24405;-46
2022/05/19 05:51:02;;;;;;;2.92;2.72;;;;;;;;;;5088980;28;24413;-46
2022/05/19 05:53:28;;;;;;;3.30;3.00;;;;;;;;;;5084698;28;24426;-46
2022/05/19 05:55:53;;;;;;;4.50;3.47;;;;;;;;;;5067000;28;25043;-46
2022/05/19 05:58:18;;;;;;;3.63;3.33;;;;;;;;;;5076846;28;25180;-45
2022/05/19 06:00:43;;;;;;;2.93;2.73;;;;;;;;;;5089070;28;24805;-45
2022/05/19 06:03:08;;;;;;;3.60;3.00;;;;;;;;;;5074129;28;24418;-45
2022/05/19 06:05:33;;;;;;;3.30;3.00;;;;;;;;;;5054806;28;24820;-46
2022/05/19 06:07:59;;;;;;;5.27;3.30;;;;;;;;;;5066093;28;24403;-45
2022/05/19 06:10:24;;;;;;;3.55;3.20;;;;;;;;;;5063479;28;25025;-45
2022/05/19 06:12:49;;;;;;;3.00;2.80;;;;;;;;;;5070738;28;25026;-45
2022/05/19 06:15:14;;;;;;;3.67;3.20;;;;;;;;;;5061711;28;24920;-46
2022/05/19 06:17:40;;;;;;;6.30;3.40;;;;;;;;;;5065128;28;24418;-45
2022/05/19 06:20:10;;;;;;;3.30;3.00;;;;;;;;;;5057381;28;24434;-46
2022/05/19 06:22:35;;;;;;;3.80;3.00;;;;;;;;;;5052396;28;24447;-45
2022/05/19 06:25:00;;;;;;;3.43;3.13;;;;;;;;;;5063378;28;24457;-45
2022/05/19 06:27:25;;;;;;;3.50;3.20;;;;;;;;;;5050988;28;24988;-45
2022/05/19 06:29:51;;;;;;;3.30;3.00;;;;;;;;;;5056841;28;24969;-46
2022/05/19 06:32:16;;;;;;;6.80;3.30;;;;;;;;;;5053753;28;24488;-45
2022/05/19 06:34:41;;;;;;;8.13;3.40;;;;;;;;;;5062283;28;24422;-45
2022/05/19 06:37:06;;;;;;;3.40;3.20;;;;;;;;;;5088338;28;24923;-45
2022/05/19 06:39:31;;;;;;;4.20;3.27;;;;;;;;;;5088180;28;24477;-45
2022/05/19 06:42:02;;;;;;;6.22;3.30;;;;;;;;;;5088414;28;24443;-46
2022/05/19 06:44:31;;;;;;;3.53;2.70;;;;;;;;;;5084895;28;24536;-45
2022/05/19 06:46:57;;;;;;;3.13;2.90;;;;;;;;;;5067733;28;24802;-45
2022/05/19 06:49:22;;;;;;;3.00;2.70;;;;;;;;;;5068259;28;24964;-46
2022/05/19 06:51:47;;;;;;;3.33;3.03;;;;;;;;;;5067888;28;24496;-46
2022/05/19 06:54:12;;;;;;;3.77;2.70;;;;;;;;;;5067343;28;25014;-46
2022/05/19 06:56:38;;;;;;;3.50;2.80;;;;;;;;;;5068208;28;24502;-46
2022/05/19 06:59:03;;;;;;;3.17;2.87;;;;;;;;;;5067481;28;24473;-45
2022/05/19 07:01:29;;;;;;;3.17;2.55;;;;;;;;;;5068194;28;24745;-46
2022/05/19 07:03:54;;;;;;;3.07;2.77;;;;;;;;;;5067286;28;24402;-46
2022/05/19 07:06:19;;;;;;;2.60;2.40;;;;;;;;;;5067371;28;24418;-46
2022/05/19 07:08:45;;;;;;;5.90;2.83;;;;;;;;;;5083625;28;25027;-46
2022/05/19 07:11:24;;;;;;;5.33;2.43;;;;;;;;;;5087765;28;24390;-45
2022/05/19 07:13:50;;;;;;;4.32;3.05;;;;;;;;;;5087405;28;24670;-45
2022/05/19 07:16:15;;;;;;;3.08;2.55;;;;;;;;;;5087436;28;24477;-44
2022/05/19 07:18:40;;;;;;;3.00;2.70;;;;;;;;;;5085127;28;24418;-44
2022/05/19 07:21:05;;;;;;;3.50;2.90;;;;;;;;;;5087295;28;24406;-45
2022/05/19 07:23:30;;;;;;;3.00;2.70;;;;;;;;;;5087299;28;24912;-44
2022/05/19 07:25:56;;;;;;;3.03;2.50;;;;;;;;;;5087485;28;24408;-44
2022/05/19 07:28:21;;;;;;;3.70;2.70;;;;;;;;;;5085834;28;24453;-45
2022/05/19 07:30:46;;;;;;;2.80;2.60;;;;;;;;;;5087286;28;25086;-45
2022/05/19 07:33:12;;;;;;;2.40;2.20;;;;;;;;;;5087698;28;24486;-45
2022/05/19 07:35:37;;;;;;;4.23;2.80;;;;;;;;;;5084367;28;24440;-45
2022/05/19 07:38:03;;;;;;;3.80;2.80;;;;;;;;;;5083619;28;24967;-44
2022/05/19 07:40:28;;;;;;;2.97;2.70;;;;;;;;;;5066796;28;25044;-45
2022/05/19 07:42:53;;;;;;;3.60;2.60;;;;;;;;;;5073733;28;24525;-46
2022/05/19 07:45:18;;;;;;;3.10;2.43;;;;;;;;;;5087003;28;24538;-45
2022/05/19 07:47:44;;;;;;;4.00;3.00;;;;;;;;;;5087598;28;24920;-45
2022/05/19 07:50:10;;;;;;;3.40;2.90;;;;;;;;;;5086848;28;24476;-45
2022/05/19 07:52:35;;;;;;;2.75;2.55;;;;;;;;;;5084570;28;24999;-45
2022/05/19 07:55:01;;;;;;;3.57;2.20;;;;;;;;;;5071640;28;24514;-46
2022/05/19 07:57:26;;;;;;;3.47;2.38;;;;;;;;;;5066967;28;24395;-45
2022/05/19 07:59:51;;;;;;;3.10;2.63;;;;;;;;;;5067079;28;24421;-46
2022/05/19 08:02:17;;;;;;;3.30;2.90;;;;;;;;;;5066639;28;24402;-46
2022/05/19 08:04:42;;;;;;;4.22;2.88;;;;;;;;;;5081434;28;24422;-45
2022/05/19 08:07:07;;;;;;;3.60;2.60;;;;;;;;;;5086892;28;24463;-45
2022/05/19 08:17:55;;;;;;;4.20;2.45;;;;;;;;;;5066528;28;24828;-46
2022/05/19 08:20:20;;;;;;;3.70;2.80;;;;;;;;;;5066830;28;24399;-46
2022/05/19 08:22:45;;;;;;;2.50;2.30;;;;;;;;;;5066461;28;24386;-46
2022/05/19 08:25:11;;;;;;;5.83;2.70;;;;;;;;;;5065705;28;24488;-46
2022/05/19 08:27:36;;;;;;;3.60;2.20;;;;;;;;;;5066246;28;24442;-45
2022/05/19 08:30:01;;;;;;;2.40;2.20;;;;;;;;;;5066013;28;24419;-45
2022/05/19 08:32:26;;;;;;;2.30;2.10;;;;;;;;;;5066325;28;24398;-45
2022/05/19 08:34:52;;;;;;;2.60;2.40;;;;;;;;;;5068648;28;24526;-45
2022/05/19 08:37:17;;;;;;;2.40;2.20;;;;;;;;;;5090469;28;24797;-46
2022/05/19 08:39:42;;;;;;;2.90;2.30;;;;;;;;;;5090694;28;24472;-45
2022/05/19 08:42:07;;;;;;;2.80;2.50;;;;;;;;;;5090520;28;24398;-45
2022/05/19 08:44:35;;;;;;;7.27;3.07;;;;;;;;;;5090441;28;24429;-45
2022/05/19 08:47:02;;;;;;;4.47;3.08;;;;;;;;;;5070265;28;24545;-46
2022/05/19 08:49:47;;;;;;;3.20;2.63;;;;;;;;;;5083334;28;24437;-45
2022/05/19 08:52:16;;;;;;;2.50;2.30;;;;;;;;;;5087768;28;25131;-45
2022/05/19 08:54:43;;;;;;;4.60;2.35;;;;;;;;;;5086122;28;24426;-45
2022/05/19 08:57:17;;;;;;;2.70;2.50;;;;;;;;;;5090141;28;24431;-45
2022/05/19 08:59:54;;;;;;;2.28;2.08;;;;;;;;;;5090579;28;24433;-45
2022/05/19 09:02:29;;;;;;;2.50;2.30;;;;;;;;;;5089741;28;25011;-45
2022/05/19 09:05:01;;;;;;;6.10;2.50;;;;;;;;;;5085907;28;24598;-46
2022/05/19 09:07:57;;;;;;;2.80;2.50;;;;;;;;;;5090035;28;25183;-46
2022/05/19 09:10:28;;;;;;;3.92;2.72;;;;;;;;;;5089848;28;24409;-45
2022/05/19 09:13:00;;;;;;;2.80;2.53;;;;;;;;;;5089723;28;24484;-45
2022/05/19 09:15:26;;;;;;;2.40;2.20;;;;;;;;;;5086662;28;24518;-45
2022/05/19 09:17:51;;;;;;;3.67;2.70;;;;;;;;;;5090364;28;24513;-46
2022/05/19 09:20:19;;;;;;;3.30;2.50;;;;;;;;;;5087019;28;24443;-45
2022/05/19 09:22:45;;;;;;;2.40;2.20;;;;;;;;;;5087598;28;24414;-45
2022/05/19 09:25:13;;;;;;;2.70;2.30;;;;;;;;;;5089853;28;24405;-45
2022/05/19 09:27:40;;;;;;;3.17;2.22;;;;;;;;;;5089863;28;24378;-46
2022/05/19 09:30:08;;;;;;;2.83;2.50;;;;;;;;;;5089547;28;24449;-45
2022/05/19 09:32:34;;;;;;;3.13;2.92;;;;;;;;;;5087645;28;24784;-46
2022/05/19 09:35:08;;;;;;;2.63;2.30;;;;;;;;;;5088997;28;25268;-46
2022/05/19 09:37:44;;;;;;;3.50;2.40;;;;;;;;;;5089496;28;24394;-45
2022/05/19 09:40:12;;;;;;;2.80;2.50;;;;;;;;;;5089478;28;24405;-45
2022/05/19 09:42:59;;;;;;;4.50;2.50;;;;;;;;;;5080864;28;24450;-45
2022/05/19 09:45:25;;;;;;;3.00;2.70;;;;;;;;;;5067599;28;24844;-45
2022/05/19 09:47:52;;;;;;;3.10;2.75;;;;;;;;;;5069075;28;24406;-45
2022/05/19 09:50:21;;;;;;;3.72;2.45;;;;;;;;;;5068616;28;24418;-44
2022/05/19 09:52:46;;;;;;;2.40;2.20;;;;;;;;;;5069422;28;24458;-45
2022/05/19 09:55:13;;;;;;;2.80;2.33;;;;;;;;;;5089078;28;24445;-45
2022/05/19 09:57:44;;;;;;;2.40;2.20;;;;;;;;;;5089253;28;24541;-45
2022/05/19 10:00:25;;;;;;;3.13;2.33;;;;;;;;;;5089069;28;24421;-45
2022/05/19 10:02:55;;;;;;;3.00;2.60;;;;;;;;;;5087501;28;24414;-45
2022/05/19 10:05:22;;;;;;;2.40;2.20;;;;;;;;;;5067948;28;24415;-45
2022/05/19 10:07:49;;;;;;;2.58;2.38;;;;;;;;;;5068649;28;24389;-45
2022/05/19 10:10:24;;;;;;;2.60;2.40;;;;;;;;;;5068410;28;24418;-45
2022/05/19 10:12:49;;;;;;;3.17;2.30;;;;;;;;;;5068883;28;24523;-45
2022/05/19 10:15:15;;;;;;;3.60;2.10;;;;;;;;;;5067097;28;25058;-45
2022/05/19 10:17:51;;;;;;;2.53;2.10;;;;;;;;;;5068757;28;24402;-45
2022/05/19 10:20:16;;;;;;;3.30;2.40;;;;;;;;;;5068103;28;24514;-45
2022/05/19 10:23:03;;;;;;;3.20;1.90;;;;;;;;;;5068423;28;24486;-45
2022/05/19 10:25:28;;;;;;;2.45;2.25;;;;;;;;;;5077818;28;24982;-46
2022/05/19 10:31:08;;;;;;;3.17;2.00;;;;;;;;;;5088203;28;24554;-45
2022/05/19 10:33:36;;;;;;;2.40;1.90;;;;;;;;;;5086770;28;24414;-45
2022/05/19 10:36:10;;;;;;;2.53;1.90;;;;;;;;;;5074768;28;24426;-46
2022/05/19 10:38:54;;;;;;;4.30;2.13;;;;;;;;;;5068455;28;24390;-45
2022/05/19 10:41:22;;;;;;;2.60;2.13;;;;;;;;;;5067674;28;24387;-45
2022/05/19 10:43:50;;;;;;;2.53;1.80;;;;;;;;;;5068043;28;24410;-46
2022/05/19 10:46:16;;;;;;;2.50;1.90;;;;;;;;;;5073357;28;24472;-46
2022/05/19 10:48:50;;;;;;;2.10;1.90;;;;;;;;;;5088161;28;24772;-46
2022/05/19 10:51:28;;;;;;;2.20;1.88;;;;;;;;;;5072293;28;24410;-45
2022/05/19 10:54:12;;;;;;;2.00;1.80;;;;;;;;;;5067935;28;24422;-46
2022/05/19 10:56:56;;;;;;;2.20;2.00;;;;;;;;;;5066697;28;24426;-45
2022/05/19 10:59:27;;;;;;;4.20;1.85;;;;;;;;;;5088269;28;24394;-45
2022/05/19 11:02:18;;;;;;;3.53;1.90;;;;;;;;;;5085639;28;24499;-45
2022/05/19 11:04:49;;;;;;;2.20;2.00;;;;;;;;;;5088264;28;24409;-45
2022/05/19 11:07:26;;;;;;;3.03;1.90;;;;;;;;;;5087749;28;24394;-46
2022/05/19 11:10:13;;;;;;;3.20;2.20;;;;;;;;;;5087680;28;24405;-48
2022/05/19 11:13:00;;;;;;;2.70;1.70;;;;;;;;;;5068749;28;24430;-45
2022/05/19 11:15:29;;;;;;;3.10;1.80;;;;;;;;;;5067264;28;24417;-44
2022/05/19 11:17:56;;;;;;;3.85;2.10;;;;;;;;;;5067174;28;24390;-46
2022/05/19 11:20:24;;;;;;;1.95;1.60;;;;;;;;;;5067430;28;24442;-46
2022/05/19 11:22:55;;;;;;;2.60;2.10;;;;;;;;;;5066527;28;24454;-45
2022/05/19 11:28:16;;;;;;;2.47;1.70;;;;;;;;;;5087613;28;24860;-45
2022/05/19 11:30:45;;;;;;;1.70;1.60;;;;;;;;;;5087109;28;24819;-46
2022/05/19 11:33:21;;;;;;;1.85;1.75;;;;;;;;;;5082008;28;25115;-45
2022/05/19 11:35:50;;;;;;;1.77;1.67;;;;;;;;;;5085647;28;24426;-46
2022/05/19 11:38:20;;;;;;;2.42;1.80;;;;;;;;;;5086260;28;21317;-43
2022/05/19 11:40:53;;;;;;;2.30;1.83;;;;;;;;;;5087541;28;24409;-45
2022/05/19 11:43:23;;;;;;;2.60;2.00;;;;;;;;;;5084309;28;25057;-46
2022/05/19 11:46:09;;;;;;;3.20;1.90;;;;;;;;;;5086650;28;24501;-45
2022/05/19 11:57:20;;;;;;;2.00;1.80;;;;;;;;;;5086543;28;25045;-45
2022/05/19 11:59:50;;;;;;;2.22;1.90;;;;;;;;;;5087176;28;24398;-45
2022/05/19 12:02:18;;;;;;;2.10;1.80;;;;;;;;;;5086797;28;24959;-46
2022/05/19 12:04:44;;;;;;;2.30;2.05;;;;;;;;;;5082416;28;24445;-46
2022/05/19 12:07:09;;;;;;;2.00;1.90;;;;;;;;;;5086431;28;24417;-46
2022/05/19 12:09:42;;;;;;;1.90;1.80;;;;;;;;;;5085967;28;24386;-46
2022/05/19 12:12:18;;;;;;;2.30;1.80;;;;;;;;;;5086690;28;24421;-45
2022/05/19 12:14:46;;;;;;;2.10;1.90;;;;;;;;;;5082743;28;24960;-45
2022/05/19 12:17:28;;;;;;;2.60;2.00;;;;;;;;;;5086257;28;24398;-45
2022/05/19 12:19:58;;;;;;;1.83;1.73;;;;;;;;;;5086877;28;24551;-45
2022/05/19 12:22:23;;;;;;;2.00;1.80;;;;;;;;;;5086889;28;24971;-46
2022/05/19 12:24:53;;;;;;;1.60;1.50;;;;;;;;;;5080049;28;24434;-47
2022/05/19 12:27:20;;;;;;;2.20;2.00;;;;;;;;;;5066107;28;24750;-45
2022/05/19 12:29:59;;;;;;;2.03;1.83;;;;;;;;;;5086551;28;24386;-47
2022/05/19 12:32:29;;;;;;;2.30;2.10;;;;;;;;;;5086689;28;24414;-43
2022/05/19 12:35:02;;;;;;;2.20;2.00;;;;;;;;;;5084218;28;24533;-44
2022/05/19 12:37:49;;;;;;;3.50;2.10;;;;;;;;;;5081991;28;24515;-46
2022/05/19 12:40:28;;;;;;;1.95;1.85;;;;;;;;;;5086302;28;24444;-46
2022/05/19 12:43:08;;;;;;;2.00;1.90;;;;;;;;;;5086567;28;24951;-43
2022/05/19 12:45:42;;;;;;;2.53;2.25;;;;;;;;;;5086253;28;24410;-47
2022/05/19 12:48:07;;;;;;;2.17;1.90;;;;;;;;;;5073093;28;24494;-43
2022/05/19 12:50:41;;;;;;;2.33;1.92;;;;;;;;;;5066427;28;24394;-45
2022/05/19 12:53:08;;;;;;;2.15;1.95;;;;;;;;;;5066096;28;24399;-44
2022/05/19 12:55:37;;;;;;;2.40;1.93;;;;;;;;;;5066149;28;20747;-44
2022/05/19 12:58:21;;;;;;;2.10;1.90;;;;;;;;;;5071127;28;24976;-44
2022/05/19 13:00:47;;;;;;;2.55;2.35;;;;;;;;;;5084866;28;24446;-44
2022/05/19 13:03:17;;;;;;;2.47;2.00;;;;;;;;;;5086893;28;24931;-44
2022/05/19 13:05:46;;;;;;;2.30;2.00;;;;;;;;;;5086666;28;24397;-44
2022/05/19 13:08:26;;;;;;;2.72;1.73;;;;;;;;;;5080343;28;24443;-44
2022/05/19 13:10:51;;;;;;;2.30;2.10;;;;;;;;;;5066381;28;24425;-44
2022/05/19 13:13:35;;;;;;;2.33;2.10;;;;;;;;;;5065738;28;24394;-44
2022/05/19 13:16:08;;;;;;;2.53;2.10;;;;;;;;;;5065929;28;24476;-44
2022/05/19 13:18:36;;;;;;;2.53;2.33;;;;;;;;;;5063983;28;24977;-44
2022/05/19 13:21:10;;;;;;;2.22;2.03;;;;;;;;;;5086726;28;24517;-44
2022/05/19 13:23:37;;;;;;;2.20;2.00;;;;;;;;;;5089440;28;24985;-45
2022/05/19 13:26:04;;;;;;;4.85;2.30;;;;;;;;;;5089329;28;24441;-44
2022/05/19 13:31:27;;;;;;;3.78;2.00;;;;;;;;;;5077595;28;24457;-44
2022/05/19 13:33:57;;;;;;;2.30;2.10;;;;;;;;;;5089617;28;24410;-44
2022/05/19 13:36:30;;;;;;;2.70;2.00;;;;;;;;;;5069993;28;24423;-44
2022/05/19 13:39:08;;;;;;;2.17;1.70;;;;;;;;;;5060842;28;24434;-44
2022/05/19 13:41:34;;;;;;;2.60;1.70;;;;;;;;;;5063135;28;24488;-44
2022/05/19 13:44:00;;;;;;;2.78;2.10;;;;;;;;;;5069473;28;24414;-44
2022/05/19 13:46:27;;;;;;;2.90;2.20;;;;;;;;;;5081612;28;24936;-45
2022/05/19 13:48:54;;;;;;;2.80;2.13;;;;;;;;;;5069368;28;24453;-44
2022/05/19 13:51:19;;;;;;;3.25;2.00;;;;;;;;;;5075060;28;24979;-44
2022/05/19 13:53:47;;;;;;;3.03;2.70;;;;;;;;;;5080126;28;25045;-44
2022/05/19 13:56:13;;;;;;;2.63;2.38;;;;;;;;;;5075484;28;24572;-44
2022/05/19 13:58:38;;;;;;;2.30;2.10;;;;;;;;;;5064895;28;24968;-45
2022/05/19 14:01:05;;;;;;;3.93;2.50;;;;;;;;;;5067671;28;24460;-45
2022/05/19 14:03:31;;;;;;;2.15;1.90;;;;;;;;;;5068148;28;24989;-45
2022/05/19 14:05:56;;;;;;;2.20;2.00;;;;;;;;;;5067580;28;24533;-45
2022/05/19 14:08:22;;;;;;;2.50;2.30;;;;;;;;;;5067681;28;24909;-45
2022/05/19 14:10:51;;;;;;;2.40;2.20;;;;;;;;;;5069653;28;24518;-45
2022/05/19 14:13:18;;;;;;;2.30;2.10;;;;;;;;;;5068439;28;24442;-45
2022/05/19 14:16:01;;;;;;;3.50;2.60;;;;;;;;;;5065900;28;24419;-45
2022/05/19 14:18:29;;;;;;;2.90;2.10;;;;;;;;;;5071087;28;24495;-45
2022/05/19 14:21:01;;;;;;;2.50;2.10;;;;;;;;;;5082286;28;24510;-45
2022/05/19 14:23:32;;;;;;;2.30;2.10;;;;;;;;;;5064739;28;24430;-44
2022/05/19 14:26:00;;;;;;;3.22;2.30;;;;;;;;;;5053386;28;24501;-45
2022/05/19 14:28:26;;;;;;;2.63;2.35;;;;;;;;;;5088543;28;24655;-44
2022/05/19 14:30:53;;;;;;;4.30;2.10;;;;;;;;;;5074274;28;24437;-45
2022/05/19 14:33:21;;;;;;;4.35;2.47;;;;;;;;;;5071717;28;24483;-45
2022/05/19 14:35:46;;;;;;;4.20;2.35;;;;;;;;;;5072890;28;24469;-45
2022/05/19 14:38:20;;;;;;;2.88;2.05;;;;;;;;;;5068097;28;24433;-45
2022/05/19 14:43:40;;;;;;;3.00;2.08;;;;;;;;;;5063249;28;24422;-45
2022/05/19 14:46:08;;;;;;;2.20;2.00;;;;;;;;;;5065500;28;24405;-44
2022/05/19 14:48:47;;;;;;;3.30;2.30;;;;;;;;;;5066907;28;24402;-45
2022/05/19 14:51:13;;;;;;;3.80;2.30;;;;;;;;;;5067856;28;24493;-44
2022/05/19 14:53:42;;;;;;;2.60;2.10;;;;;;;;;;5067785;28;24426;-45
2022/05/19 14:56:09;;;;;;;2.13;1.88;;;;;;;;;;5056581;28;24987;-44
2022/05/19 14:58:55;;;;;;;3.00;2.17;;;;;;;;;;5057103;28;24506;-44
2022/05/19 15:01:21;;;;;;;3.40;2.10;;;;;;;;;;5051285;28;24434;-45
2022/05/19 15:03:46;;;;;;;2.70;2.00;;;;;;;;;;5055067;28;24415;-45
2022/05/19 15:06:12;;;;;;;3.80;2.17;;;;;;;;;;5047510;28;24525;-44
2022/05/19 15:08:37;;;;;;;2.70;2.20;;;;;;;;;;5047801;28;24414;-44
2022/05/19 15:11:02;;;;;;;3.30;2.40;;;;;;;;;;5050492;28;24431;-44
2022/05/19 15:13:28;;;;;;;3.33;2.30;;;;;;;;;;5049539;28;24435;-45
2022/05/19 15:15:53;;;;;;;2.60;2.40;;;;;;;;;;5055476;28;24987;-45
2022/05/19 15:18:19;;;;;;;2.50;2.30;;;;;;;;;;5067428;28;24473;-45